createdAt,value
2023-09-28T00:00:35.333Z,20.40
2023-09-28T00:03:03.601Z,20.40
2023-09-28T00:05:31.153Z,20.40
2023-09-28T00:08:01.620Z,20.60
2023-09-28T00:10:29.449Z,20.40
2023-09-28T00:12:56.626Z,20.40
2023-09-28T00:15:27.684Z,20.40
2023-09-28T00:17:55.776Z,20.40
2023-09-28T00:20:23.983Z,20.40
2023-09-28T00:22:53.447Z,20.40
2023-09-28T00:25:21.097Z,20.40
2023-09-28T00:27:51.228Z,20.40
2023-09-28T00:30:23.342Z,20.40
2023-09-28T00:32:52.579Z,20.40
2023-09-28T00:35:20.751Z,20.40
2023-09-28T00:37:49.601Z,20.40
2023-09-28T00:40:22.086Z,20.40
2023-09-28T00:42:51.399Z,20.40
2023-09-28T00:45:25.726Z,20.70
2023-09-28T00:47:55.876Z,20.40
2023-09-28T00:50:23.333Z,20.40
2023-09-28T00:53:00.102Z,20.40
2023-09-28T00:55:28.787Z,21.30
2023-09-28T00:58:01.177Z,20.50
2023-09-28T01:00:30.566Z,20.60
2023-09-28T01:02:59.077Z,20.60
2023-09-28T01:05:28.076Z,21.10
2023-09-28T01:07:56.756Z,20.60
2023-09-28T01:10:24.458Z,20.60
2023-09-28T01:12:52.470Z,20.60
2023-09-28T01:15:20.446Z,20.60
2023-09-28T01:17:47.633Z,20.60
2023-09-28T01:20:31.487Z,20.50
2023-09-28T01:22:58.696Z,20.40
2023-09-28T01:25:27.142Z,20.40
2023-09-28T01:27:55.419Z,20.40
2023-09-28T01:30:24.037Z,20.40
2023-09-28T01:32:53.075Z,20.30
2023-09-28T01:35:21.352Z,20.30
2023-09-28T01:38:14.101Z,20.50
2023-09-28T01:40:42.561Z,20.30
2023-09-28T01:43:09.724Z,20.20
2023-09-28T01:45:36.917Z,19.70
2023-09-28T01:48:05.176Z,20.30
2023-09-28T01:50:33.180Z,20.30
2023-09-28T01:53:00.602Z,20.30
2023-09-28T01:55:27.961Z,20.30
2023-09-28T01:57:55.125Z,20.30
2023-09-28T02:00:25.978Z,20.40
2023-09-28T02:02:57.733Z,20.40
2023-09-28T02:05:33.058Z,20.40
2023-09-28T02:08:00.958Z,20.40
2023-09-28T02:10:28.192Z,20.20
2023-09-28T02:12:58.150Z,20.40
2023-09-28T02:15:25.312Z,20.30
2023-09-28T02:17:52.504Z,20.40
2023-09-28T02:20:23.602Z,20.70
2023-09-28T02:22:53.885Z,20.40
2023-09-28T02:25:26.176Z,20.40
2023-09-28T02:27:54.506Z,20.40
2023-09-28T02:30:24.730Z,20.30
2023-09-28T02:32:53.128Z,20.30
2023-09-28T02:35:20.960Z,20.30
2023-09-28T02:37:50.329Z,20.30
2023-09-28T02:40:19.168Z,21.00
2023-09-28T02:42:49.313Z,20.20
2023-09-28T02:45:16.568Z,20.40
2023-09-28T02:47:45.413Z,20.50
2023-09-28T02:50:14.463Z,20.90
2023-09-28T02:52:44.176Z,20.50
2023-09-28T02:55:13.534Z,20.50
2023-09-28T02:57:41.104Z,20.50
2023-09-28T03:00:18.890Z,20.50
2023-09-28T03:02:46.727Z,20.40
2023-09-28T03:05:17.796Z,20.40
2023-09-28T03:07:45.887Z,20.40
2023-09-28T03:10:13.403Z,20.30
2023-09-28T03:12:40.826Z,20.20
2023-09-28T03:15:12.181Z,20.70
2023-09-28T03:17:40.592Z,20.30
2023-09-28T03:20:16.181Z,20.30
2023-09-28T03:22:45.443Z,20.30
2023-09-28T03:25:20.171Z,20.70
2023-09-28T03:27:50.176Z,20.30
2023-09-28T03:30:19.371Z,20.50
2023-09-28T03:32:49.595Z,20.30
2023-09-28T03:35:18.375Z,20.40
2023-09-28T03:37:47.321Z,20.30
2023-09-28T03:40:16.123Z,20.30
2023-09-28T03:42:50.432Z,20.30
2023-09-28T03:45:21.846Z,20.30
2023-09-28T03:47:52.010Z,20.30
2023-09-28T03:50:21.002Z,20.20
2023-09-28T03:52:48.311Z,20.40
2023-09-28T03:55:22.830Z,20.80
2023-09-28T03:57:51.252Z,20.50
2023-09-28T04:00:19.914Z,20.70
2023-09-28T04:02:54.245Z,20.50
2023-09-28T04:05:24.789Z,20.50
2023-09-28T04:07:52.327Z,20.50
2023-09-28T04:10:23.592Z,20.40
2023-09-28T04:12:55.753Z,20.40
2023-09-28T04:15:23.927Z,20.40
2023-09-28T04:17:51.662Z,20.40
2023-09-28T04:20:18.900Z,20.40
2023-09-28T04:22:46.375Z,20.40
2023-09-28T04:25:14.449Z,20.40
2023-09-28T04:27:41.616Z,20.40
2023-09-28T04:30:09.943Z,20.70
2023-09-28T04:32:37.479Z,20.40
2023-09-28T04:35:07.246Z,20.40
2023-09-28T04:37:34.593Z,20.40
2023-09-28T04:40:01.731Z,20.40
2023-09-28T04:42:31.028Z,20.70
2023-09-28T04:44:58.135Z,20.40
2023-09-28T04:47:25.294Z,20.40
2023-09-28T04:49:52.488Z,20.30
2023-09-28T04:52:19.583Z,20.40
2023-09-28T04:54:46.684Z,20.40
2023-09-28T04:57:13.797Z,20.40
2023-09-28T04:59:41.638Z,20.10
2023-09-28T05:02:09.534Z,20.40
2023-09-28T05:04:37.119Z,21.20
2023-09-28T05:07:05.477Z,20.50
2023-09-28T05:09:33.973Z,20.30
2023-09-28T05:12:02.161Z,20.40
2023-09-28T05:14:31.462Z,20.40
2023-09-28T05:16:58.657Z,20.30
2023-09-28T05:19:31.185Z,20.30
2023-09-28T05:21:58.516Z,20.30
2023-09-28T05:24:25.649Z,20.30
2023-09-28T05:26:52.763Z,20.30
2023-09-28T05:29:19.914Z,20.30
2023-09-28T05:31:48.049Z,20.30
2023-09-28T05:34:15.503Z,20.30
2023-09-28T05:36:42.591Z,20.50
2023-09-28T05:39:09.771Z,20.40
2023-09-28T05:41:37.348Z,20.40
2023-09-28T05:44:05.044Z,20.40
2023-09-28T05:46:32.341Z,20.40
2023-09-28T05:48:59.596Z,20.40
2023-09-28T05:51:27.599Z,20.00
2023-09-28T05:53:55.170Z,20.40
2023-09-28T05:56:22.459Z,20.40
2023-09-28T05:58:50.100Z,20.40
2023-09-28T06:01:18.753Z,20.40
2023-09-28T06:03:46.027Z,20.40
2023-09-28T06:06:18.274Z,20.50
2023-09-28T06:08:51.253Z,20.40
2023-09-28T06:11:19.881Z,20.40
2023-09-28T06:16:17.385Z,20.40
2023-09-28T06:18:46.046Z,20.40
2023-09-28T06:21:13.189Z,20.40
2023-09-28T06:23:40.571Z,20.40
2023-09-28T06:26:09.612Z,20.40
2023-09-28T06:28:37.578Z,20.40
2023-09-28T06:31:04.780Z,20.40
2023-09-28T06:33:31.956Z,20.40
2023-09-28T06:35:59.189Z,20.40
2023-09-28T06:38:26.340Z,20.40
2023-09-28T06:40:53.518Z,20.40
2023-09-28T06:43:21.207Z,20.50
2023-09-28T06:45:48.396Z,20.50
2023-09-28T06:48:20.464Z,20.50
2023-09-28T06:50:48.642Z,20.40
2023-09-28T06:53:17.654Z,20.50
2023-09-28T06:55:49.634Z,20.50
2023-09-28T06:58:21.628Z,20.50
2023-09-28T07:00:49.094Z,20.50
2023-09-28T07:03:17.335Z,20.60
2023-09-28T07:05:44.563Z,20.40
2023-09-28T07:08:11.900Z,20.30
2023-09-28T07:10:39.524Z,20.30
2023-09-28T07:13:07.422Z,20.20
2023-09-28T07:15:36.128Z,20.60
2023-09-28T07:18:06.834Z,20.20
2023-09-28T07:20:33.983Z,20.10
2023-09-28T07:23:01.093Z,19.90
2023-09-28T07:25:28.735Z,20.00
2023-09-28T07:27:55.936Z,20.10
2023-09-28T07:30:25.206Z,20.00
2023-09-28T07:32:52.436Z,20.10
2023-09-28T07:35:20.413Z,20.10
2023-09-28T07:37:48.334Z,20.10
2023-09-28T07:40:25.727Z,20.10
2023-09-28T07:42:56.030Z,20.10
2023-09-28T07:45:23.376Z,20.20
2023-09-28T07:47:50.742Z,20.10
2023-09-28T07:50:18.594Z,20.10
2023-09-28T07:52:45.842Z,20.10
2023-09-28T07:55:14.562Z,20.10
2023-09-28T08:00:13.086Z,20.10
2023-09-28T08:02:41.769Z,20.10
2023-09-28T08:05:09.278Z,20.10
2023-09-28T08:07:36.366Z,20.10
2023-09-28T08:10:05.362Z,20.00
2023-09-28T08:12:32.689Z,20.10
2023-09-28T08:14:59.786Z,20.00
2023-09-28T08:17:27.005Z,20.70
2023-09-28T08:19:54.241Z,20.10
2023-09-28T08:22:21.410Z,20.10
2023-09-28T08:24:49.345Z,20.10
2023-09-28T08:27:17.578Z,20.10
2023-09-28T08:29:44.895Z,19.90
2023-09-28T08:32:12.084Z,20.10
2023-09-28T08:34:39.771Z,20.10
2023-09-28T08:37:07.039Z,20.30
2023-09-28T08:39:35.475Z,20.10
2023-09-28T08:42:03.703Z,19.30
2023-09-28T08:44:36.861Z,20.00
2023-09-28T08:47:15.595Z,19.90
2023-09-28T08:49:47.387Z,19.90
2023-09-28T08:52:18.610Z,20.00
2023-09-28T08:54:45.955Z,20.00
2023-09-28T08:57:16.782Z,20.00
2023-09-28T08:59:44.776Z,20.00
2023-09-28T09:02:14.262Z,20.00
2023-09-28T09:04:43.413Z,20.10
2023-09-28T09:07:11.303Z,20.10
2023-09-28T09:09:41.868Z,20.10
2023-09-28T09:12:12.160Z,20.10
2023-09-28T09:14:39.587Z,20.10
2023-09-28T09:17:08.507Z,20.00
2023-09-28T09:19:36.973Z,20.10
2023-09-28T09:22:07.782Z,20.20
2023-09-28T09:24:54.018Z,20.20
2023-09-28T09:27:33.098Z,20.30
2023-09-28T09:30:09.289Z,20.30
2023-09-28T09:32:40.118Z,20.40
2023-09-28T09:35:08.376Z,20.50
2023-09-28T09:37:35.973Z,20.60
2023-09-28T09:40:13.638Z,20.70
2023-09-28T09:42:42.898Z,20.70
2023-09-28T09:45:12.424Z,20.70
2023-09-28T09:47:47.108Z,20.70
2023-09-28T09:50:19.248Z,20.70
2023-09-28T09:52:47.030Z,20.70
2023-09-28T09:55:15.640Z,20.70
2023-09-28T09:57:47.894Z,20.70
2023-09-28T10:00:19.916Z,20.70
2023-09-28T10:02:51.615Z,20.70
2023-09-28T10:05:20.428Z,20.70
2023-09-28T10:07:49.064Z,20.60
2023-09-28T10:10:16.399Z,20.60
2023-09-28T10:12:43.859Z,20.70
2023-09-28T10:15:12.121Z,21.10
2023-09-28T10:17:39.911Z,20.60
2023-09-28T10:20:08.508Z,20.60
2023-09-28T10:22:36.100Z,20.60
2023-09-28T10:25:03.328Z,20.60
2023-09-28T10:27:31.570Z,20.60
2023-09-28T10:30:25.674Z,20.60
2023-09-28T10:32:55.606Z,20.60
2023-09-28T10:35:32.580Z,20.60
2023-09-28T10:38:22.597Z,20.60
2023-09-28T10:41:02.157Z,20.60
2023-09-28T10:43:34.258Z,20.60
2023-09-28T10:46:05.719Z,20.60
2023-09-28T10:48:43.344Z,20.60
2023-09-28T10:51:12.609Z,20.60
2023-09-28T10:53:40.390Z,20.50
2023-09-28T10:56:08.081Z,20.60
2023-09-28T10:58:36.336Z,20.60
2023-09-28T11:01:08.124Z,20.60
2023-09-28T11:03:36.708Z,20.80
2023-09-28T11:06:05.789Z,20.60
2023-09-28T11:08:33.947Z,20.60
2023-09-28T11:11:04.893Z,20.60
2023-09-28T11:13:32.451Z,20.60
2023-09-28T11:16:01.152Z,20.60
2023-09-28T11:18:28.650Z,20.60
2023-09-28T11:21:00.218Z,20.70
2023-09-28T11:23:29.354Z,20.70
2023-09-28T11:25:56.961Z,20.70
2023-09-28T11:28:24.643Z,20.70
2023-09-28T11:31:09.523Z,20.70
2023-09-28T11:33:37.464Z,20.80
2023-09-28T11:36:05.850Z,20.70
2023-09-28T11:38:33.608Z,20.80
2023-09-28T11:41:03.357Z,20.80
2023-09-28T11:43:34.071Z,20.70
2023-09-28T11:46:02.251Z,20.40
2023-09-28T11:48:31.297Z,20.70
2023-09-28T11:50:58.569Z,20.80
2023-09-28T11:53:25.739Z,20.70
2023-09-28T11:55:52.974Z,20.70
2023-09-28T11:58:23.240Z,20.60
2023-09-28T12:00:50.456Z,20.80
2023-09-28T12:03:18.381Z,20.70
2023-09-28T12:05:47.895Z,20.20
2023-09-28T12:08:15.214Z,21.00
2023-09-28T12:10:42.431Z,20.70
2023-09-28T12:13:09.550Z,20.60
2023-09-28T12:15:38.223Z,19.90
2023-09-28T12:18:05.633Z,20.50
2023-09-28T12:20:33.712Z,20.50
2023-09-28T12:23:03.049Z,20.10
2023-09-28T12:25:34.420Z,20.70
2023-09-28T12:28:01.739Z,20.70
2023-09-28T12:30:29.929Z,20.70
2023-09-28T12:32:58.277Z,20.70
2023-09-28T12:35:25.612Z,20.70
2023-09-28T12:37:53.753Z,20.70
2023-09-28T12:40:21.866Z,20.70
2023-09-28T12:42:49.038Z,20.70
2023-09-28T12:45:16.230Z,20.90
2023-09-28T12:47:43.360Z,20.90
2023-09-28T12:50:10.762Z,20.90
2023-09-28T12:52:37.863Z,20.90
2023-09-28T12:55:05.276Z,20.90
2023-09-28T12:57:32.439Z,20.90
2023-09-28T12:59:59.605Z,20.90
2023-09-28T13:02:28.094Z,20.90
2023-09-28T13:04:55.326Z,20.90
2023-09-28T13:07:22.554Z,20.90
2023-09-28T13:09:49.791Z,20.90
2023-09-28T13:12:16.955Z,20.90
2023-09-28T13:14:44.669Z,20.90
2023-09-28T13:17:14.879Z,20.90
2023-09-28T13:19:43.886Z,20.70
2023-09-28T13:22:13.671Z,20.90
2023-09-28T13:24:41.355Z,20.90
2023-09-28T13:27:08.703Z,20.90
2023-09-28T13:29:36.138Z,20.90
2023-09-28T13:32:03.545Z,20.90
2023-09-28T13:34:31.643Z,20.90
2023-09-28T13:36:59.466Z,20.90
2023-09-28T13:39:30.683Z,20.90
2023-09-28T13:42:05.219Z,20.90
2023-09-28T13:44:34.422Z,20.90
2023-09-28T13:47:04.132Z,20.80
2023-09-28T13:49:31.482Z,20.80
2023-09-28T13:51:59.008Z,21.00
2023-09-28T13:54:30.914Z,20.80
2023-09-28T13:57:08.385Z,20.80
2023-09-28T13:59:35.991Z,20.80
2023-09-28T14:02:03.191Z,20.80
2023-09-28T14:04:30.515Z,20.80
2023-09-28T14:06:57.816Z,20.80
2023-09-28T14:09:32.428Z,20.80
2023-09-28T14:11:59.628Z,20.70
2023-09-28T14:14:26.829Z,20.60
2023-09-28T14:17:00.344Z,20.70
2023-09-28T14:19:30.441Z,20.70
2023-09-28T14:21:57.751Z,20.80
2023-09-28T14:24:28.063Z,20.80
2023-09-28T14:26:55.309Z,20.80
2023-09-28T14:29:22.457Z,20.80
2023-09-28T14:31:50.522Z,20.80
2023-09-28T14:34:17.618Z,20.80
2023-09-28T14:36:44.763Z,20.70
2023-09-28T14:39:11.995Z,20.80
2023-09-28T14:41:39.512Z,20.80
2023-09-28T14:44:07.065Z,20.80
2023-09-28T14:46:34.829Z,20.80
2023-09-28T14:49:02.152Z,20.80
2023-09-28T14:51:29.233Z,20.80
2023-09-28T14:53:56.489Z,20.80
2023-09-28T14:56:23.728Z,20.80
2023-09-28T14:58:51.593Z,20.80
2023-09-28T15:01:18.698Z,20.80
2023-09-28T15:03:46.070Z,20.80
2023-09-28T15:06:13.304Z,20.80
2023-09-28T15:08:40.505Z,20.80
2023-09-28T15:11:08.611Z,20.70
2023-09-28T15:13:39.245Z,20.80
2023-09-28T15:16:07.998Z,20.80
2023-09-28T15:18:35.234Z,20.90
2023-09-28T15:21:06.860Z,20.90
2023-09-28T15:23:34.288Z,20.90
2023-09-28T15:26:05.278Z,20.90
2023-09-28T15:28:33.558Z,20.90
2023-09-28T15:31:01.618Z,20.80
2023-09-28T15:33:29.450Z,20.90
2023-09-28T15:35:58.972Z,20.90
2023-09-28T15:38:26.843Z,20.90
2023-09-28T15:40:54.003Z,20.90
2023-09-28T15:43:21.153Z,20.90
2023-09-28T15:45:49.504Z,20.90
2023-09-28T15:48:16.686Z,21.00
2023-09-28T15:50:43.884Z,21.00
2023-09-28T15:53:11.497Z,21.00
2023-09-28T15:55:38.669Z,21.00
2023-09-28T15:58:06.346Z,21.10
2023-09-28T16:00:37.935Z,21.10
2023-09-28T16:03:06.921Z,21.10
2023-09-28T16:05:34.229Z,21.10
2023-09-28T16:08:01.454Z,21.10
2023-09-28T16:10:28.614Z,20.90
2023-09-28T16:12:55.759Z,21.10
2023-09-28T16:15:22.863Z,21.10
2023-09-28T16:17:50.071Z,21.00
2023-09-28T16:20:17.662Z,21.10
2023-09-28T16:22:44.835Z,21.10
2023-09-28T16:25:11.998Z,21.00
2023-09-28T16:27:39.568Z,21.70
2023-09-28T16:30:07.672Z,21.00
2023-09-28T16:32:34.833Z,21.00
2023-09-28T16:35:01.959Z,21.00
2023-09-28T16:37:29.064Z,20.80
2023-09-28T16:39:56.714Z,21.00
2023-09-28T16:42:23.797Z,21.00
2023-09-28T16:44:51.045Z,21.00
2023-09-28T16:47:18.270Z,21.00
2023-09-28T16:49:45.477Z,21.00
2023-09-28T16:52:13.412Z,21.00
2023-09-28T16:54:40.622Z,21.00
2023-09-28T16:57:07.756Z,21.00
2023-09-28T16:59:35.043Z,21.00
2023-09-28T17:02:03.039Z,21.10
2023-09-28T17:04:30.481Z,20.90
2023-09-28T17:06:58.349Z,21.00
2023-09-28T17:09:26.913Z,21.00
2023-09-28T17:11:54.524Z,21.10
2023-09-28T17:14:21.689Z,21.00
2023-09-28T17:16:49.036Z,21.00
2023-09-28T17:19:16.238Z,21.00
2023-09-28T17:21:44.190Z,21.00
2023-09-28T17:24:11.551Z,21.00
2023-09-28T17:26:38.825Z,21.00
2023-09-28T17:29:05.986Z,21.00
2023-09-28T17:31:33.074Z,20.90
2023-09-28T17:34:00.170Z,20.20
2023-09-28T17:36:27.308Z,20.60
2023-09-28T17:38:54.797Z,20.90
2023-09-28T17:41:22.248Z,20.90
2023-09-28T17:43:49.486Z,20.90
2023-09-28T17:46:16.660Z,20.90
2023-09-28T17:48:46.820Z,21.00
2023-09-28T17:51:14.172Z,20.90
2023-09-28T17:53:41.295Z,20.80
2023-09-28T17:56:08.693Z,20.90
2023-09-28T17:58:35.858Z,20.70
2023-09-28T18:01:03.006Z,20.90
2023-09-28T18:03:30.132Z,20.80
2023-09-28T18:05:57.238Z,20.70
2023-09-28T18:08:24.428Z,20.90
2023-09-28T18:10:51.558Z,20.80
2023-09-28T18:13:18.663Z,20.90
2023-09-28T18:15:46.722Z,20.90
2023-09-28T18:18:13.834Z,20.90
2023-09-28T18:20:41.045Z,20.90
2023-09-28T18:23:09.394Z,20.80
2023-09-28T18:25:36.587Z,20.80
2023-09-28T18:28:06.023Z,20.90
2023-09-28T18:30:33.184Z,20.80
2023-09-28T18:33:00.447Z,21.00
2023-09-28T18:35:27.766Z,20.80
2023-09-28T18:37:56.570Z,20.80
2023-09-28T18:40:24.822Z,20.80
2023-09-28T18:42:51.910Z,20.80
2023-09-28T18:45:19.079Z,20.70
2023-09-28T18:47:46.348Z,20.50
2023-09-28T18:50:13.526Z,21.20
2023-09-28T18:52:40.733Z,20.60
2023-09-28T18:55:08.370Z,20.70
2023-09-28T18:57:36.356Z,20.70
2023-09-28T19:00:05.675Z,20.70
2023-09-28T19:02:33.594Z,20.60
2023-09-28T19:05:00.948Z,20.70
2023-09-28T19:07:31.825Z,21.40
2023-09-28T19:09:59.011Z,20.70
2023-09-28T19:12:26.126Z,20.80
2023-09-28T19:14:53.256Z,20.80
2023-09-28T19:17:20.438Z,20.80
2023-09-28T19:19:47.635Z,20.80
2023-09-28T19:22:17.488Z,20.70
2023-09-28T19:24:45.835Z,20.70
2023-09-28T19:27:21.228Z,20.80
2023-09-28T19:29:55.413Z,20.80
2023-09-28T19:32:22.683Z,20.70
2023-09-28T19:34:49.795Z,20.80
2023-09-28T19:37:16.886Z,20.60
2023-09-28T19:39:44.222Z,20.70
2023-09-28T19:42:11.315Z,20.70
2023-09-28T19:44:39.550Z,20.70
2023-09-28T19:47:08.560Z,20.50
2023-09-28T19:49:35.705Z,20.70
2023-09-28T19:52:04.892Z,20.70
2023-09-28T19:54:32.572Z,20.70
2023-09-28T19:56:59.706Z,20.70
2023-09-28T19:59:26.841Z,20.70
2023-09-28T20:01:54.201Z,21.40
2023-09-28T20:04:21.418Z,20.80
2023-09-28T20:06:48.847Z,20.80
2023-09-28T20:09:16.225Z,20.80
2023-09-28T20:11:44.325Z,20.10
2023-09-28T20:14:11.480Z,20.80
2023-09-28T20:16:38.719Z,20.90
2023-09-28T20:19:05.860Z,20.80
2023-09-28T20:21:32.975Z,20.90
2023-09-28T20:24:00.179Z,20.80
2023-09-28T20:26:27.406Z,20.90
2023-09-28T20:28:54.530Z,20.80
2023-09-28T20:31:22.378Z,20.80
2023-09-28T20:33:49.622Z,20.70
2023-09-28T20:36:19.953Z,20.70
2023-09-28T20:38:47.578Z,20.70
2023-09-28T20:41:14.851Z,20.80
2023-09-28T20:43:42.007Z,20.70
2023-09-28T20:46:18.381Z,20.80
2023-09-28T20:48:45.815Z,20.80
2023-09-28T20:51:14.578Z,20.70
2023-09-28T20:53:41.850Z,20.70
2023-09-28T20:56:16.106Z,20.70
2023-09-28T20:58:43.464Z,20.70
2023-09-28T21:01:11.767Z,20.70
2023-09-28T21:03:39.617Z,20.70
2023-09-28T21:06:11.724Z,20.70
2023-09-28T21:08:39.468Z,20.70
2023-09-28T21:11:06.996Z,20.70
2023-09-28T21:13:34.457Z,20.80
2023-09-28T21:16:01.600Z,20.70
2023-09-28T21:18:29.262Z,20.70
2023-09-28T21:20:56.584Z,20.90
2023-09-28T21:23:23.791Z,20.60
2023-09-28T21:25:51.012Z,20.50
2023-09-28T21:28:18.141Z,20.50
2023-09-28T21:30:45.277Z,20.60
2023-09-28T21:33:12.478Z,20.60
2023-09-28T21:35:40.601Z,20.60
2023-09-28T21:38:07.945Z,20.60
2023-09-28T21:40:35.075Z,20.70
2023-09-28T21:43:02.198Z,20.70
2023-09-28T21:45:29.897Z,20.90
2023-09-28T21:47:57.065Z,20.70
2023-09-28T21:50:24.204Z,20.70
2023-09-28T21:52:51.308Z,20.70
2023-09-28T21:55:18.429Z,20.70
2023-09-28T21:57:45.546Z,20.90
2023-09-28T22:00:35.591Z,20.70
2023-09-28T22:03:06.383Z,20.70
2023-09-28T22:05:34.181Z,20.70
2023-09-28T22:08:02.049Z,20.80
2023-09-28T22:10:30.714Z,20.80
2023-09-28T22:13:01.134Z,20.80
2023-09-28T22:15:28.501Z,20.80
2023-09-28T22:17:56.158Z,20.90
2023-09-28T22:20:23.481Z,20.90
2023-09-28T22:22:50.722Z,20.90
2023-09-28T22:25:18.446Z,20.80
2023-09-28T22:27:45.611Z,20.90
2023-09-28T22:30:13.205Z,20.80
2023-09-28T22:32:42.234Z,20.80
2023-09-28T22:35:10.187Z,20.80
2023-09-28T22:37:38.848Z,20.70
2023-09-28T22:40:20.464Z,20.70
2023-09-28T22:42:54.300Z,20.70
2023-09-28T22:45:21.799Z,20.30
2023-09-28T22:47:49.329Z,20.60
2023-09-28T22:50:16.920Z,20.60
2023-09-28T22:52:44.365Z,20.80
2023-09-28T22:55:13.266Z,20.70
2023-09-28T22:57:40.573Z,20.60
2023-09-28T23:00:10.631Z,20.60
2023-09-28T23:02:41.142Z,20.60
2023-09-28T23:05:12.535Z,21.10
2023-09-28T23:07:41.781Z,20.60
2023-09-28T23:10:10.702Z,20.40
2023-09-28T23:12:39.118Z,20.50
2023-09-28T23:15:07.918Z,20.50
2023-09-28T23:17:35.380Z,20.50
2023-09-28T23:20:02.750Z,20.50
2023-09-28T23:22:30.907Z,20.50
2023-09-28T23:24:58.035Z,20.60
2023-09-28T23:27:25.142Z,20.50
2023-09-28T23:29:52.296Z,20.50
2023-09-28T23:32:19.509Z,20.60
2023-09-28T23:34:46.789Z,20.60
2023-09-28T23:37:14.378Z,20.60
2023-09-28T23:39:42.411Z,20.60
2023-09-28T23:42:12.018Z,20.60
2023-09-28T23:44:39.224Z,21.00
2023-09-28T23:47:06.827Z,20.80
2023-09-28T23:49:33.976Z,20.80
2023-09-28T23:52:01.171Z,20.80
2023-09-28T23:54:28.429Z,21.20
2023-09-28T23:56:55.624Z,20.70
2023-09-28T23:59:22.824Z,20.70
